| Record Date MM/DD/YYYY | Record Time HH:MM:SS | Record Julian Date NNN day of the year | Air Temperature Max (Degrees Fahrenheit F) | Time Max Air Temperature HH:MM:SS This is the time of max air temp for the prior hour interval listed for record [Time]. | Air Temperature Min (Degrees Fahrenheit F) | Time Min Air Temperature HH:MM:SS This is the time of min air temp for the prior hour interval listed for record [Time]. | Air Temperature Observed (Degrees Fahrenheit F) This is an instantaneous reading at the record [Time]. | Relative Humidity Max (Percent) | Time Max Relative Humidity HH:MM:SS This is the time of max relative humidity for the prior hour interval listed for record [Time]. | Relative Humidity Min (Percent) | Time Min Relative Humidity HH:MM:SS This is the time of min relative humidity for the prior hour interval listed for record [Time]. | Relative Humidity Observed (Percent) This is an instantaneous reading at the record [Time]. | Precipitation (Inches n.nn) rain fall that occurred during the prior hour interval listed for record [Time]. | Wind Speed (Miles Per Hour) Resultant Speed that occurred during the prior hour interval listed for record [Time]. | Wind Direction (Degrees) Resultant Direction that occurred during the prior hour interval listed for record [Time]. | Solar Radiation (Langley's) that occurred during the prior hour interval listed for record [Time]. | Soil Temperature Average at 2 inch depth (Degrees Fahrenheit F) that occurred during the prior hour interval listed for record [Time]. | Soil Temperature Observed at 2 inch depth (Degrees Fahrenheit F) This is an instantaneous reading at the record [Time]. | Soil Temperature Average at 4 inch depth (Degrees Fahrenheit F) that occurred during the prior hour interval listed for record [Time]. | Soil Temperature Observed at 4 inch depth (Degrees Fahrenheit F) This is an instantaneous reading at the record [Time]. |
|---|---|---|---|---|---|---|---|---|---|---|---|---|---|---|---|---|---|---|---|---|
| 08/30/2026 | 0:00:00 | 242 | 68 | 23:00:01 | 65 | 23:59:01 | 65 | 92 | 23:36:02 | 88 | 23:00:01 | 91.1 | 0 | 0.9 | 72 | 0 | 83 | 82 | 87 | 86 |
| 08/30/2026 | 1:00:00 | 242 | 67 | 0:09:04 | 65 | 0:00:01 | 66 | 91 | 0:54:05 | 89 | 0:11:05 | 91.2 | 0 | 0.8 | 15 | 0 | 82 | 82 | 86 | 85 |
| 08/30/2026 | 2:00:00 | 242 | 66 | 1:52:01 | 66 | 1:00:01 | 66 | 92 | 1:19:04 | 91 | 1:35:03 | 91.4 | 0 | 0.8 | 5 | 0 | 81 | 81 | 85 | 84 |
| 08/30/2026 | 3:00:00 | 242 | 67 | 2:50:04 | 66 | 2:03:03 | 67 | 92 | 2:31:04 | 90 | 2:53:05 | 90.2 | 0 | 0.2 | 1 | 0 | 81 | 80 | 84 | 84 |
| 08/30/2026 | 4:00:00 | 242 | 67 | 3:59:01 | 66 | 3:34:01 | 67 | 93 | 3:45:03 | 90 | 3:00:01 | 91.4 | 0 | 0.7 | 184 | 0 | 80 | 80 | 83 | 83 |
| 08/30/2026 | 5:00:00 | 242 | 68 | 4:22:02 | 66 | 4:59:04 | 66 | 92 | 4:59:05 | 89 | 4:23:02 | 92.2 | 0 | 0.8 | 312 | 0 | 80 | 79 | 83 | 83 |
| 08/30/2026 | 6:00:00 | 242 | 67 | 6:00:00 | 66 | 5:41:02 | 67 | 94 | 5:56:03 | 92 | 5:27:04 | 93.7 | 0 | 0.5 | 225 | 1 | 79 | 79 | 82 | 82 |
| 08/30/2026 | 7:00:00 | 242 | 77 | 7:00:00 | 67 | 6:00:01 | 77 | 94 | 6:00:01 | 84 | 6:53:00 | 84.3 | 0 | 0.4 | 145 | 12 | 79 | 80 | 82 | 82 |
| 08/30/2026 | 8:00:00 | 242 | 80 | 7:57:02 | 77 | 7:00:01 | 80 | 85 | 7:02:00 | 77 | 7:59:01 | 78.12 | 0 | 3.7 | 147 | 28 | 81 | 83 | 82 | 83 |
| 08/30/2026 | 9:00:00 | 242 | 85 | 8:58:04 | 80 | 8:00:01 | 85 | 79 | 8:00:02 | 71 | 8:59:02 | 71.56 | 0 | 3.7 | 133 | 44 | 85 | 86 | 83 | 84 |
| 08/30/2026 | 10:00:00 | 242 | 91 | 9:58:05 | 85 | 9:05:00 | 90 | 74 | 9:06:04 | 63 | 9:53:04 | 64.65 | 0 | 3.5 | 131 | 58 | 89 | 91 | 85 | 86 |
| 08/30/2026 | 11:00:00 | 242 | 93 | 10:46:02 | 90 | 10:36:02 | 91 | 66 | 10:14:05 | 56 | 10:49:04 | 65.28 | 0 | 4.0 | 146 | 54 | 92 | 94 | 87 | 88 |
| 08/30/2026 | 12:00:00 | 242 | 93 | 11:51:02 | 89 | 11:16:00 | 91 | 69 | 11:19:00 | 57 | 11:53:04 | 62.72 | 0 | 2.8 | 183 | 26 | 93 | 93 | 89 | 89 |
| 08/30/2026 | 13:00:00 | 242 | 93 | 12:45:01 | 90 | 12:12:02 | 93 | 65 | 12:06:03 | 56 | 12:35:03 | 56.87 | 0 | 4.9 | 130 | 38 | 93 | 94 | 89 | 90 |
| 08/30/2026 | 14:00:00 | 242 | 95 | 13:37:05 | 93 | 13:29:05 | 94 | 59 | 13:00:03 | 51 | 14:00:00 | 50.96 | 0 | 5.0 | 132 | 63 | 95 | 97 | 90 | 91 |
| 08/30/2026 | 15:00:00 | 242 | 96 | 14:59:02 | 94 | 14:29:00 | 96 | 57 | 14:37:04 | 49 | 14:59:02 | 51.26 | 0 | 4.5 | 138 | 54 | 98 | 98 | 92 | 93 |
| 08/30/2026 | 16:00:00 | 242 | 96 | 15:00:04 | 92 | 15:40:01 | 93 | 59 | 15:38:04 | 48 | 15:02:04 | 53.73 | 0 | 4.7 | 132 | 31 | 98 | 97 | 93 | 93 |
| 08/30/2026 | 17:00:00 | 242 | 95 | 16:37:01 | 93 | 16:12:05 | 93 | 57 | 16:59:02 | 50 | 16:33:00 | 56.5 | 0 | 3.8 | 130 | 25 | 97 | 96 | 93 | 93 |
| 08/30/2026 | 18:00:00 | 242 | 93 | 17:00:01 | 86 | 17:59:03 | 86 | 73 | 17:57:04 | 57 | 17:03:03 | 73.07 | 0 | 2.4 | 137 | 8 | 95 | 94 | 93 | 93 |
| 08/30/2026 | 19:00:00 | 242 | 86 | 18:00:01 | 82 | 18:59:03 | 82 | 78 | 18:22:01 | 73 | 18:00:04 | 74.94 | 0 | 1.3 | 125 | 0 | 92 | 91 | 92 | 92 |
| 08/30/2026 | 20:00:00 | 242 | 84 | 19:58:01 | 82 | 19:32:05 | 84 | 75 | 19:00:02 | 68 | 19:57:02 | 68.17 | 0 | 2.3 | 115 | 0 | 90 | 89 | 91 | 91 |
| 08/30/2026 | 21:00:00 | 242 | 84 | 20:00:01 | 80 | 20:39:02 | 81 | 77 | 20:40:00 | 68 | 20:00:01 | 74.37 | 0 | 2.5 | 119 | 0 | 89 | 88 | 90 | 90 |
| 08/30/2026 | 22:00:00 | 242 | 81 | 21:00:01 | 75 | 21:59:04 | 75 | 88 | 22:00:00 | 74 | 21:00:01 | 87.9 | 0 | 1.5 | 191 | 0 | 87 | 87 | 89 | 89 |
| 08/30/2026 | 23:00:00 | 242 | 75 | 22:00:01 | 72 | 22:59:02 | 72 | 92 | 22:56:01 | 88 | 22:00:01 | 91.6 | 0 | 1.6 | 185 | 0 | 86 | 85 | 88 | 88 |
| 08/31/2026 | 0:00:00 | 243 | 74 | 23:58:00 | 72 | 23:09:03 | 74 | 93 | 23:32:00 | 91 | 0:00:00 | 90.6 | 0 | 0.2 | 198 | 0 | 85 | 84 | 87 | 87 |
| 08/31/2026 | 1:00:00 | 243 | 74 | 0:00:01 | 73 | 0:59:00 | 73 | 91 | 0:31:05 | 90 | 0:55:04 | 90.2 | 0 | 0.0 | 0 | 0 | 84 | 84 | 87 | 86 |
| 08/31/2026 | 2:00:00 | 243 | 75 | 1:27:01 | 72 | 1:59:00 | 72 | 91 | 1:16:01 | 88 | 1:33:04 | 91.4 | 0 | 0.0 | 0 | 0 | 83 | 83 | 86 | 86 |
| 08/31/2026 | 3:00:00 | 243 | 73 | 2:35:04 | 72 | 2:00:05 | 72 | 92 | 2:04:03 | 90 | 2:41:05 | 90.9 | 0 | 0.1 | 178 | 0 | 83 | 82 | 85 | 85 |
| 08/31/2026 | 4:00:00 | 243 | 73 | 3:26:00 | 72 | 3:10:04 | 72 | 91 | 3:16:03 | 89 | 3:46:04 | 90 | 0 | 0.1 | 3 | 0 | 82 | 82 | 85 | 84 |
| 08/31/2026 | 5:00:00 | 243 | 72 | 4:00:05 | 71 | 4:51:05 | 71 | 93 | 4:58:04 | 90 | 4:00:01 | 92.9 | 0 | 0.8 | 182 | 0 | 82 | 81 | 84 | 84 |
| 08/31/2026 | 6:00:00 | 243 | 73 | 5:59:02 | 71 | 5:01:01 | 73 | 93 | 5:00:01 | 90 | 5:45:00 | 91.2 | 0 | 0.8 | 171 | 1 | 81 | 81 | 84 | 84 |
| 08/31/2026 | 7:00:00 | 243 | 80 | 7:00:00 | 73 | 6:00:01 | 80 | 91 | 6:02:04 | 83 | 6:55:04 | 84.1 | 0 | 1.6 | 146 | 12 | 81 | 82 | 83 | 83 |
| 08/31/2026 | 8:00:00 | 243 | 84 | 7:56:04 | 80 | 7:01:05 | 83 | 84 | 7:00:01 | 77 | 7:54:02 | 78.06 | 0 | 2.7 | 141 | 29 | 83 | 85 | 84 | 84 |
| 08/31/2026 | 9:00:00 | 243 | 90 | 9:00:00 | 83 | 8:00:01 | 90 | 79 | 8:05:01 | 64 | 8:59:03 | 66.21 | 0 | 2.0 | 146 | 46 | 86 | 88 | 84 | 85 |
| 08/31/2026 | 10:00:00 | 243 | 94 | 9:33:00 | 90 | 9:11:02 | 92 | 67 | 9:45:04 | 56 | 9:32:02 | 62.1 | 0 | 2.1 | 183 | 59 | 91 | 93 | 86 | 87 |
| 08/31/2026 | 11:00:00 | 243 | 94 | 10:56:04 | 90 | 10:39:02 | 93 | 66 | 10:35:02 | 53 | 10:56:04 | 54.48 | 0 | 2.7 | 138 | 49 | 94 | 95 | 88 | 89 |
| 08/31/2026 | 12:00:00 | 243 | 94 | 11:30:04 | 91 | 11:43:03 | 93 | 63 | 11:16:03 | 54 | 11:49:01 | 53.57 | 0 | 2.9 | 147 | 39 | 95 | 95 | 90 | 90 |
| 08/31/2026 | 13:00:00 | 243 | 95 | 12:08:01 | 92 | 12:23:03 | 93 | 57 | 12:21:00 | 51 | 12:10:01 | 52.53 | 0 | 2.2 | 117 | 34 | 96 | 96 | 91 | 91 |
| 08/31/2026 | 14:00:00 | 243 | 97 | 13:30:00 | 93 | 13:00:01 | 97 | 59 | 13:12:01 | 47 | 13:35:05 | 48.82 | 0 | 2.6 | 141 | 49 | 96 | 97 | 92 | 92 |
| 08/31/2026 | 15:00:00 | 243 | 97 | 14:28:01 | 96 | 14:52:02 | 97 | 52 | 14:02:04 | 45 | 14:34:02 | 45.78 | 0 | 3.5 | 136 | 56 | 99 | 99 | 93 | 94 |
| 08/31/2026 | 16:00:00 | 243 | 98 | 15:08:01 | 96 | 15:47:05 | 97 | 52 | 15:56:01 | 44 | 15:07:05 | 45.03 | 0 | 3.0 | 126 | 43 | 100 | 100 | 94 | 95 |
| 08/31/2026 | 17:00:00 | 243 | 97 | 16:22:05 | 96 | 16:56:04 | 96 | 54 | 16:47:02 | 43 | 16:32:01 | 50.5 | 0 | 2.6 | 127 | 27 | 99 | 98 | 95 | 95 |
| 08/31/2026 | 18:00:00 | 243 | 96 | 17:03:02 | 91 | 18:00:00 | 91 | 58 | 17:36:04 | 49 | 17:06:05 | 56.82 | 0 | 2.1 | 107 | 10 | 97 | 96 | 95 | 94 |
| 08/31/2026 | 19:00:00 | 243 | 91 | 18:00:01 | 85 | 18:46:00 | 85 | 73 | 18:44:02 | 56 | 18:00:01 | 69.37 | 0 | 1.8 | 89 | 0 | 94 | 93 | 94 | 93 |
| 08/31/2026 | 20:00:00 | 243 | 86 | 19:05:05 | 80 | 20:00:00 | 80 | 81 | 20:00:00 | 67 | 19:04:05 | 81.3 | 0 | 2.0 | 97 | 0 | 92 | 91 | 93 | 92 |
| 08/31/2026 | 21:00:00 | 243 | 80 | 20:00:01 | 78 | 20:51:04 | 78 | 87 | 20:59:03 | 81 | 20:00:01 | 87 | 0 | 0.9 | 224 | 0 | 90 | 89 | 92 | 91 |
| 08/31/2026 | 22:00:00 | 243 | 78 | 21:11:05 | 77 | 21:45:04 | 77 | 89 | 21:44:05 | 86 | 21:09:04 | 87.9 | 0 | 0.0 | 215 | 0 | 89 | 88 | 90 | 90 |
| 08/31/2026 | 23:00:00 | 243 | 78 | 22:44:01 | 77 | 22:04:02 | 78 | 88 | 22:05:04 | 84 | 22:31:05 | 84.6 | 0 | 0.4 | 347 | 0 | 88 | 87 | 90 | 89 |
| 09/01/2026 | 0:00:00 | 244 | 78 | 23:00:01 | 75 | 23:58:01 | 75 | 90 | 23:59:05 | 85 | 23:00:04 | 90.1 | 0 | 0.5 | 335 | 0 | 87 | 86 | 89 | 88 |
| 09/01/2026 | 1:00:00 | 244 | 75 | 0:09:01 | 74 | 0:58:00 | 74 | 91 | 0:59:04 | 90 | 0:17:02 | 91.3 | 0 | 0.4 | 18 | 0 | 86 | 85 | 88 | 88 |
| 09/01/2026 | 2:00:00 | 244 | 75 | 1:25:02 | 74 | 1:14:02 | 74 | 92 | 1:24:00 | 91 | 1:46:03 | 91 | 0 | 0.3 | 357 | 0 | 85 | 85 | 87 | 87 |
| 09/01/2026 | 3:00:00 | 244 | 74 | 2:12:03 | 72 | 2:39:02 | 73 | 94 | 2:59:05 | 90 | 2:19:01 | 94 | 0 | 0.5 | 255 | 0 | 84 | 84 | 87 | 86 |
| 09/01/2026 | 4:00:00 | 244 | 74 | 3:34:05 | 72 | 3:59:04 | 72 | 95 | 3:15:04 | 90 | 3:50:05 | 91.8 | 0 | 0.7 | 352 | 0 | 84 | 83 | 86 | 86 |
| 09/01/2026 | 5:00:00 | 244 | 73 | 4:48:04 | 72 | 4:01:02 | 73 | 94 | 4:18:00 | 92 | 4:00:01 | 92.2 | 0 | 0.5 | 310 | 0 | 83 | 83 | 86 | 85 |
| 09/01/2026 | 6:00:00 | 244 | 73 | 5:00:01 | 71 | 5:37:04 | 72 | 95 | 5:56:00 | 92 | 5:07:02 | 94.4 | 0 | 0.1 | 210 | 1 | 83 | 82 | 85 | 85 |
| 09/01/2026 | 7:00:00 | 244 | 83 | 6:59:04 | 72 | 6:00:01 | 83 | 94 | 6:00:01 | 79 | 6:59:03 | 79.36 | 0 | 0.3 | 41 | 12 | 83 | 83 | 85 | 85 |
| 09/01/2026 | 8:00:00 | 244 | 87 | 7:58:00 | 83 | 7:00:03 | 87 | 81 | 7:01:03 | 70 | 7:59:00 | 70.46 | 0 | 2.5 | 144 | 29 | 85 | 86 | 85 | 85 |
| 09/01/2026 | 9:00:00 | 244 | 90 | 8:58:00 | 87 | 8:01:00 | 90 | 72 | 8:22:05 | 66 | 8:14:05 | 68.57 | 0 | 2.2 | 125 | 45 | 88 | 90 | 86 | 86 |
| 09/01/2026 | 10:00:00 | 244 | 94 | 9:55:05 | 90 | 9:00:01 | 94 | 69 | 9:00:03 | 57 | 9:56:01 | 57.76 | 0 | 2.4 | 130 | 58 | 92 | 94 | 87 | 88 |
| 09/01/2026 | 11:00:00 | 244 | 97 | 10:48:00 | 93 | 10:17:04 | 95 | 59 | 10:11:05 | 51 | 10:57:00 | 52.67 | 0 | 2.5 | 138 | 68 | 95 | 97 | 89 | 91 |
| 09/01/2026 | 12:00:00 | 244 | 98 | 11:45:01 | 94 | 11:05:00 | 97 | 55 | 11:05:01 | 41 | 11:56:03 | 41.69 | 0 | 2.6 | 79 | 74 | 99 | 100 | 92 | 93 |
| 09/01/2026 | 13:00:00 | 244 | 100 | 12:54:02 | 97 | 12:00:01 | 99 | 47 | 12:19:05 | 39 | 12:48:03 | 44.19 | 0 | 2.8 | 181 | 75 | 102 | 103 | 94 | 95 |
| 09/01/2026 | 14:00:00 | 244 | 100 | 13:40:04 | 97 | 13:12:04 | 100 | 50 | 13:19:02 | 40 | 13:54:01 | 43.54 | 0 | 3.7 | 159 | 67 | 103 | 104 | 96 | 96 |
| 09/01/2026 | 15:00:00 | 244 | 101 | 14:28:03 | 98 | 15:00:00 | 98 | 46 | 14:52:04 | 38 | 14:24:03 | 43.23 | 0 | 3.7 | 163 | 59 | 104 | 104 | 97 | 98 |
| 09/01/2026 | 16:00:00 | 244 | 100 | 15:16:02 | 97 | 15:56:00 | 98 | 47 | 15:48:05 | 39 | 15:04:05 | 44.31 | 0 | 4.0 | 136 | 50 | 104 | 104 | 98 | 98 |
| 09/01/2026 | 17:00:00 | 244 | 98 | 16:05:03 | 96 | 16:39:00 | 97 | 53 | 16:44:03 | 42 | 16:01:03 | 50.21 | 0 | 3.5 | 136 | 29 | 103 | 102 | 98 | 98 |
| 09/01/2026 | 18:00:00 | 244 | 97 | 17:00:01 | 92 | 17:59:04 | 92 | 55 | 17:45:01 | 46 | 17:04:00 | 53.15 | 0 | 3.4 | 111 | 10 | 100 | 99 | 98 | 97 |
| 09/01/2026 | 19:00:00 | 244 | 92 | 18:00:02 | 84 | 18:57:03 | 84 | 75 | 18:51:05 | 52 | 18:00:05 | 72.86 | 0 | 1.2 | 83 | 0 | 97 | 96 | 97 | 96 |
| 09/01/2026 | 20:00:00 | 244 | 84 | 19:05:04 | 81 | 19:38:05 | 82 | 79 | 19:38:02 | 71 | 19:04:00 | 76.05 | 0 | 1.1 | 28 | 0 | 95 | 93 | 95 | 95 |
| 09/01/2026 | 21:00:00 | 244 | 82 | 20:09:01 | 77 | 20:38:05 | 77 | 89 | 20:40:01 | 75 | 20:12:05 | 88.7 | 0 | 0.8 | 216 | 0 | 93 | 92 | 94 | 93 |
| 09/01/2026 | 22:00:00 | 244 | 81 | 21:30:02 | 77 | 21:55:01 | 77 | 89 | 21:05:03 | 78 | 21:37:02 | 85.1 | 0 | 0.5 | 145 | 0 | 91 | 90 | 93 | 92 |
| 09/01/2026 | 23:00:00 | 244 | 79 | 22:24:05 | 77 | 23:00:00 | 77 | 87 | 23:00:00 | 84 | 22:25:02 | 87.2 | 0 | 0.3 | 281 | 0 | 90 | 89 | 92 | 91 |
| 09/02/2026 | 0:00:00 | 245 | 77 | 23:00:01 | 76 | 0:00:00 | 76 | 89 | 23:37:02 | 87 | 23:00:02 | 88.4 | 0 | 0.0 | 21 | 0 | 89 | 88 | 91 | 90 |
| 09/02/2026 | 1:00:00 | 245 | 77 | 0:46:03 | 75 | 0:12:01 | 77 | 89 | 0:37:02 | 86 | 0:45:01 | 86.6 | 0 | 0.6 | 7 | 0 | 88 | 87 | 90 | 90 |
| 09/02/2026 | 2:00:00 | 245 | 77 | 1:05:02 | 75 | 1:55:02 | 76 | 89 | 1:56:03 | 86 | 1:06:01 | 88.3 | 0 | 0.4 | 4 | 0 | 87 | 87 | 89 | 89 |
| 09/02/2026 | 3:00:00 | 245 | 76 | 2:02:03 | 73 | 2:53:05 | 73 | 93 | 2:57:02 | 88 | 2:07:01 | 91.7 | 0 | 0.6 | 333 | 0 | 86 | 86 | 89 | 88 |
| 09/02/2026 | 4:00:00 | 245 | 74 | 3:12:04 | 73 | 3:41:02 | 74 | 93 | 3:49:05 | 91 | 3:29:04 | 90.9 | 0 | 0.6 | 306 | 0 | 86 | 85 | 88 | 88 |
| 09/02/2026 | 5:00:00 | 245 | 74 | 4:06:05 | 73 | 4:59:04 | 73 | 92 | 4:53:05 | 90 | 4:08:00 | 91.4 | 0 | 0.6 | 324 | 0 | 85 | 85 | 87 | 87 |
| 09/02/2026 | 6:00:00 | 245 | 73 | 5:59:03 | 72 | 5:44:00 | 73 | 95 | 5:49:01 | 91 | 5:00:01 | 94 | 0 | 0.3 | 134 | 1 | 84 | 84 | 87 | 87 |
| 09/02/2026 | 7:00:00 | 245 | 81 | 6:59:04 | 73 | 6:00:01 | 81 | 94 | 6:00:01 | 81 | 7:00:00 | 81.1 | 0 | 0.5 | 149 | 11 | 84 | 85 | 86 | 86 |
| 09/02/2026 | 8:00:00 | 245 | 85 | 7:58:03 | 81 | 7:00:01 | 85 | 82 | 7:01:01 | 75 | 7:56:03 | 74.86 | 0 | 2.0 | 153 | 28 | 86 | 87 | 86 | 87 |
| 09/02/2026 | 9:00:00 | 245 | 90 | 9:00:00 | 85 | 8:00:01 | 90 | 76 | 8:00:04 | 65 | 8:48:03 | 65.77 | 0 | 1.3 | 77 | 44 | 89 | 91 | 87 | 88 |
| 09/02/2026 | 10:00:00 | 245 | 96 | 9:55:00 | 90 | 9:00:01 | 94 | 66 | 9:08:00 | 54 | 9:55:03 | 56.24 | 0 | 1.9 | 105 | 58 | 93 | 95 | 89 | 90 |
| 09/02/2026 | 11:00:00 | 245 | 98 | 11:00:00 | 94 | 10:00:02 | 98 | 58 | 10:00:04 | 43 | 10:37:04 | 47.07 | 0 | 2.6 | 163 | 67 | 96 | 98 | 91 | 92 |
| 09/02/2026 | 12:00:00 | 245 | 98 | 11:01:00 | 96 | 11:17:03 | 98 | 53 | 11:51:03 | 43 | 11:02:01 | 49.69 | 0 | 3.6 | 135 | 73 | 100 | 101 | 93 | 94 |
| 09/02/2026 | 13:00:00 | 245 | 100 | 12:42:01 | 97 | 12:56:03 | 98 | 53 | 12:24:05 | 43 | 12:45:02 | 45.29 | 0 | 2.8 | 175 | 64 | 102 | 103 | 95 | 96 |
| 09/02/2026 | 14:00:00 | 245 | 100 | 13:07:01 | 95 | 13:21:02 | 100 | 53 | 13:22:00 | 40 | 13:50:00 | 41.36 | 0 | 3.5 | 129 | 59 | 103 | 103 | 96 | 97 |
| 09/02/2026 | 15:00:00 | 245 | 100 | 14:25:02 | 96 | 14:34:01 | 99 | 49 | 14:48:02 | 40 | 15:00:00 | 40.36 | 0 | 3.2 | 131 | 45 | 103 | 103 | 97 | 98 |
| 09/02/2026 | 16:00:00 | 245 | 101 | 15:05:04 | 99 | 15:49:03 | 100 | 46 | 15:45:01 | 38 | 15:24:00 | 41.31 | 0 | 3.1 | 137 | 42 | 103 | 103 | 98 | 98 |
| 09/02/2026 | 17:00:00 | 245 | 100 | 16:00:01 | 96 | 16:54:00 | 96 | 52 | 16:58:05 | 39 | 16:06:05 | 51.71 | 0 | 3.5 | 145 | 27 | 102 | 101 | 98 | 98 |
| 09/02/2026 | 18:00:00 | 245 | 97 | 17:05:01 | 92 | 17:59:05 | 92 | 56 | 17:59:03 | 48 | 17:31:03 | 55.09 | 0 | 2.8 | 116 | 11 | 100 | 99 | 98 | 98 |
| 09/02/2026 | 19:00:00 | 245 | 92 | 18:00:01 | 86 | 18:57:03 | 86 | 65 | 19:00:00 | 55 | 18:00:01 | 65.26 | 0 | 2.3 | 82 | 0 | 97 | 96 | 97 | 96 |
| 09/02/2026 | 20:00:00 | 245 | 86 | 19:00:01 | 81 | 19:51:00 | 81 | 84 | 19:54:05 | 65 | 19:00:02 | 82.9 | 0 | 1.2 | 246 | 0 | 95 | 94 | 96 | 95 |
| 09/02/2026 | 21:00:00 | 245 | 81 | 20:00:02 | 79 | 20:17:04 | 79 | 87 | 20:19:03 | 83 | 20:04:00 | 84.8 | 0 | 1.0 | 147 | 0 | 93 | 92 | 94 | 94 |
| 09/02/2026 | 22:00:00 | 245 | 80 | 21:16:04 | 78 | 21:59:02 | 78 | 87 | 21:37:01 | 84 | 21:46:00 | 85.9 | 0 | 0.5 | 3 | 0 | 92 | 91 | 93 | 93 |
| 09/02/2026 | 23:00:00 | 245 | 78 | 22:40:05 | 78 | 22:59:02 | 78 | 88 | 22:26:01 | 86 | 22:41:03 | 86.5 | 0 | 0.0 | 137 | 0 | 90 | 90 | 92 | 92 |
| 09/03/2026 | 0:00:00 | 246 | 78 | 23:27:02 | 76 | 23:59:02 | 76 | 89 | 0:00:00 | 85 | 23:31:03 | 88.8 | 0 | 0.3 | 33 | 0 | 89 | 89 | 92 | 91 |
| 09/03/2026 | 1:00:00 | 246 | 77 | 0:54:04 | 76 | 0:29:05 | 77 | 90 | 0:35:00 | 88 | 0:22:03 | 89 | 0 | 0.1 | 200 | 0 | 89 | 88 | 91 | 90 |
| 09/03/2026 | 2:00:00 | 246 | 77 | 1:00:03 | 75 | 1:43:02 | 75 | 92 | 1:52:01 | 89 | 1:02:01 | 90.9 | 0 | 0.1 | 236 | 0 | 88 | 87 | 90 | 90 |
| 09/03/2026 | 3:00:00 | 246 | 76 | 2:30:03 | 75 | 2:53:05 | 75 | 92 | 2:58:05 | 90 | 2:12:03 | 92.1 | 0 | 0.3 | 17 | 0 | 87 | 87 | 89 | 89 |
| 09/03/2026 | 4:00:00 | 246 | 75 | 3:28:05 | 74 | 3:59:04 | 74 | 93 | 3:24:00 | 91 | 3:40:02 | 91.5 | 0 | 0.5 | 26 | 0 | 87 | 86 | 89 | 89 |
| 09/03/2026 | 5:00:00 | 246 | 74 | 4:43:04 | 74 | 4:31:01 | 74 | 94 | 4:39:05 | 92 | 4:00:01 | 93 | 0 | 0.5 | 270 | 0 | 86 | 86 | 88 | 88 |
| 09/03/2026 | 6:00:00 | 246 | 74 | 5:02:05 | 72 | 5:44:03 | 73 | 95 | 5:55:02 | 93 | 5:04:00 | 94.6 | 0 | 1.0 | 344 | 1 | 85 | 85 | 88 | 88 |
| 09/03/2026 | 7:00:00 | 246 | 80 | 7:00:00 | 73 | 6:00:01 | 80 | 95 | 6:03:04 | 86 | 7:00:00 | 85.8 | 0 | 0.5 | 24 | 11 | 85 | 86 | 87 | 87 |
| 09/03/2026 | 8:00:00 | 246 | 86 | 7:55:02 | 80 | 7:00:01 | 86 | 86 | 7:00:01 | 71 | 7:57:00 | 71.35 | 0 | 1.4 | 144 | 28 | 87 | 88 | 87 | 87 |
| 09/03/2026 | 9:00:00 | 246 | 93 | 8:55:05 | 86 | 8:09:05 | 91 | 74 | 8:11:05 | 60 | 8:57:02 | 61.22 | 0 | 0.9 | 148 | 43 | 89 | 91 | 88 | 89 |
| 09/03/2026 | 10:00:00 | 246 | 97 | 9:53:02 | 91 | 9:00:01 | 95 | 63 | 9:06:04 | 50 | 9:54:02 | 54.45 | 0 | 1.8 | 123 | 56 | 93 | 95 | 89 | 90 |
| 09/03/2026 | 11:00:00 | 246 | 98 | 10:58:04 | 94 | 10:01:02 | 98 | 58 | 10:01:03 | 44 | 10:55:00 | 45.83 | 0 | 2.4 | 135 | 66 | 97 | 99 | 91 | 92 |
| 09/03/2026 | 12:00:00 | 246 | 99 | 11:30:05 | 96 | 11:17:02 | 99 | 54 | 11:16:02 | 43 | 11:31:04 | 47.9 | 0 | 3.2 | 174 | 72 | 100 | 101 | 93 | 94 |
| 09/03/2026 | 13:00:00 | 246 | 101 | 12:32:03 | 98 | 12:11:05 | 100 | 53 | 12:16:03 | 43 | 12:32:03 | 46.61 | 0 | 3.0 | 161 | 73 | 103 | 103 | 95 | 96 |
| 09/03/2026 | 14:00:00 | 246 | 102 | 13:55:05 | 98 | 13:06:04 | 100 | 49 | 13:28:00 | 39 | 13:57:00 | 42.2 | 0 | 3.4 | 160 | 68 | 104 | 105 | 97 | 98 |
| 09/03/2026 | 15:00:00 | 246 | 101 | 14:11:03 | 97 | 14:36:00 | 99 | 49 | 14:35:03 | 40 | 14:02:05 | 45.94 | 0 | 3.9 | 122 | 51 | 105 | 104 | 98 | 99 |
| 09/03/2026 | 16:00:00 | 246 | 101 | 15:41:03 | 99 | 15:00:01 | 101 | 47 | 15:00:01 | 40 | 15:57:03 | 41.46 | 0 | 2.7 | 143 | 48 | 104 | 104 | 99 | 99 |
| 09/03/2026 | 17:00:00 | 246 | 101 | 16:00:04 | 94 | 16:49:02 | 96 | 53 | 16:22:03 | 40 | 16:01:00 | 50.06 | 0 | 4.6 | 130 | 25 | 103 | 102 | 99 | 99 |
| 09/03/2026 | 18:00:00 | 246 | 97 | 17:05:01 | 91 | 17:59:00 | 91 | 62 | 17:57:05 | 46 | 17:06:01 | 61.27 | 0 | 2.9 | 97 | 10 | 101 | 100 | 99 | 98 |
| 09/03/2026 | 19:00:00 | 246 | 91 | 18:02:02 | 87 | 19:00:00 | 87 | 69 | 19:00:00 | 60 | 18:02:02 | 69.18 | 0 | 2.0 | 106 | 1 | 98 | 97 | 98 | 97 |
| 09/03/2026 | 20:00:00 | 246 | 87 | 19:00:01 | 81 | 19:53:03 | 81 | 84 | 20:00:00 | 69 | 19:00:01 | 83.7 | 0 | 1.5 | 164 | 0 | 96 | 95 | 97 | 96 |
| 09/03/2026 | 21:00:00 | 246 | 82 | 20:01:00 | 79 | 20:36:02 | 80 | 88 | 20:36:05 | 83 | 20:03:05 | 85.4 | 0 | 1.3 | 238 | 0 | 94 | 93 | 95 | 95 |
| 09/03/2026 | 22:00:00 | 246 | 80 | 21:00:01 | 79 | 21:53:02 | 79 | 87 | 21:13:01 | 85 | 21:39:00 | 85.6 | 0 | 0.8 | 132 | 0 | 93 | 92 | 94 | 94 |
| 09/03/2026 | 23:00:00 | 246 | 81 | 22:43:01 | 79 | 22:00:01 | 80 | 86 | 22:02:01 | 79 | 22:42:02 | 82.2 | 0 | 1.0 | 95 | 0 | 91 | 91 | 93 | 93 |
| 09/04/2026 | 0:00:00 | 247 | 80 | 23:00:01 | 77 | 23:59:05 | 77 | 88 | 23:44:02 | 82 | 23:00:01 | 87.4 | 0 | 0.4 | 358 | 0 | 90 | 90 | 92 | 92 |
| 09/04/2026 | 1:00:00 | 247 | 77 | 0:00:01 | 75 | 0:34:02 | 77 | 93 | 0:38:04 | 87 | 0:00:01 | 90.2 | 0 | 0.9 | 319 | 0 | 89 | 89 | 92 | 91 |
| 09/04/2026 | 2:00:00 | 247 | 77 | 1:10:01 | 74 | 1:57:04 | 74 | 93 | 1:59:05 | 89 | 1:12:02 | 93.4 | 0 | 1.2 | 292 | 0 | 89 | 88 | 91 | 91 |
| 09/04/2026 | 3:00:00 | 247 | 75 | 2:12:03 | 74 | 2:39:01 | 74 | 94 | 2:06:03 | 92 | 2:14:04 | 93.7 | 0 | 0.7 | 19 | 0 | 88 | 87 | 90 | 90 |
| 09/04/2026 | 4:00:00 | 247 | 75 | 3:48:02 | 74 | 3:20:04 | 75 | 94 | 3:24:02 | 93 | 3:54:05 | 93 | 0 | 0.3 | 8 | 0 | 87 | 87 | 90 | 89 |
| 09/04/2026 | 5:00:00 | 247 | 75 | 4:00:04 | 73 | 4:31:01 | 74 | 95 | 4:50:01 | 93 | 4:12:05 | 94 | 0 | 0.7 | 214 | 0 | 87 | 86 | 89 | 89 |
| 09/04/2026 | 6:00:00 | 247 | 75 | 6:00:00 | 74 | 5:17:00 | 75 | 95 | 5:36:03 | 93 | 5:13:03 | 93.5 | 0 | 0.3 | 336 | 1 | 86 | 86 | 88 | 88 |
| 09/04/2026 | 7:00:00 | 247 | 79 | 6:29:00 | 75 | 6:00:01 | 78 | 94 | 6:00:01 | 87 | 6:28:05 | 89 | 0 | 0.4 | 56 | 10 | 86 | 86 | 88 | 88 |
| 09/04/2026 | 8:00:00 | 247 | 85 | 8:00:00 | 78 | 7:04:05 | 85 | 90 | 7:08:03 | 72 | 7:59:04 | 71.66 | 0 | 1.2 | 82 | 22 | 87 | 88 | 88 | 88 |
| 09/04/2026 | 9:00:00 | 247 | 91 | 8:57:03 | 85 | 8:15:00 | 90 | 77 | 8:13:02 | 64 | 8:57:05 | 64.69 | 0 | 1.1 | 239 | 38 | 89 | 91 | 88 | 89 |
| 09/04/2026 | 10:00:00 | 247 | 96 | 9:58:01 | 90 | 9:00:03 | 96 | 65 | 9:05:00 | 50 | 9:58:02 | 51.57 | 0 | 1.6 | 222 | 61 | 93 | 95 | 90 | 91 |
| 09/04/2026 | 11:00:00 | 247 | 99 | 10:49:04 | 96 | 10:28:03 | 99 | 53 | 10:30:05 | 47 | 10:18:01 | 47.79 | 0 | 2.1 | 166 | 67 | 97 | 99 | 92 | 93 |
| 09/04/2026 | 12:00:00 | 247 | 99 | 11:19:04 | 97 | 11:38:01 | 98 | 53 | 11:10:02 | 46 | 11:06:04 | 48.85 | 0 | 2.7 | 298 | 80 | 101 | 102 | 94 | 95 |
| 09/04/2026 | 13:00:00 | 247 | 100 | 12:41:01 | 96 | 12:16:02 | 99 | 54 | 12:16:05 | 44 | 12:43:02 | 44.95 | 0 | 2.8 | 44 | 71 | 103 | 104 | 96 | 97 |
| 09/04/2026 | 14:00:00 | 247 | 101 | 13:30:04 | 97 | 13:48:04 | 99 | 51 | 13:50:01 | 42 | 13:31:04 | 44.27 | 0 | 3.2 | 55 | 60 | 105 | 105 | 98 | 98 |
| 09/04/2026 | 15:00:00 | 247 | 100 | 14:13:00 | 98 | 14:40:03 | 100 | 48 | 14:37:00 | 39 | 14:20:04 | 43 | 0 | 3.6 | 89 | 51 | 105 | 104 | 99 | 99 |
| 09/04/2026 | 16:00:00 | 247 | 100 | 15:25:04 | 99 | 15:08:03 | 99 | 46 | 15:08:02 | 40 | 15:47:00 | 42.21 | 0 | 4.0 | 50 | 40 | 104 | 104 | 99 | 99 |
| 09/04/2026 | 17:00:00 | 247 | 101 | 16:41:03 | 99 | 16:23:05 | 100 | 46 | 16:50:03 | 40 | 16:39:03 | 44.72 | 0 | 2.5 | 82 | 25 | 103 | 102 | 99 | 99 |
| 09/04/2026 | 18:00:00 | 247 | 100 | 17:00:01 | 94 | 18:00:00 | 94 | 63 | 17:56:05 | 41 | 17:01:04 | 61.45 | 0 | 1.2 | 128 | 9 | 101 | 100 | 99 | 99 |
| 09/04/2026 | 19:00:00 | 247 | 94 | 18:00:01 | 84 | 18:52:01 | 86 | 68 | 18:51:02 | 58 | 18:02:01 | 62.13 | 0 | 3.1 | 131 | 1 | 98 | 97 | 98 | 97 |
| 09/04/2026 | 20:00:00 | 247 | 86 | 19:01:05 | 81 | 19:58:01 | 81 | 76 | 19:57:04 | 62 | 19:00:05 | 76 | 0 | 1.0 | 182 | 0 | 96 | 95 | 97 | 96 |
| 09/04/2026 | 21:00:00 | 247 | 81 | 20:02:05 | 78 | 20:16:02 | 80 | 84 | 20:16:00 | 75 | 20:02:01 | 78.28 | 0 | 1.5 | 185 | 0 | 94 | 93 | 95 | 95 |
| 09/04/2026 | 22:00:00 | 247 | 81 | 21:09:01 | 78 | 21:59:02 | 78 | 84 | 21:59:04 | 77 | 21:07:04 | 83.8 | 0 | 0.6 | 10 | 0 | 92 | 92 | 94 | 94 |
| 09/04/2026 | 23:00:00 | 247 | 78 | 22:09:00 | 77 | 23:00:00 | 77 | 87 | 23:00:00 | 83 | 22:10:02 | 86.8 | 0 | 0.4 | 7 | 0 | 91 | 91 | 93 | 93 |
| 09/05/2026 | 0:00:00 | 248 | 77 | 23:44:05 | 76 | 23:22:04 | 77 | 88 | 23:59:04 | 87 | 23:42:02 | 87.9 | 0 | 0.6 | 12 | 0 | 90 | 90 | 92 | 92 |
| 09/05/2026 | 1:00:00 | 248 | 77 | 0:03:04 | 74 | 0:59:05 | 75 | 91 | 1:00:00 | 87 | 0:04:02 | 90.7 | 0 | 0.7 | 335 | 0 | 90 | 89 | 92 | 91 |
| 09/05/2026 | 2:00:00 | 248 | 75 | 1:55:00 | 74 | 1:09:01 | 75 | 93 | 1:16:00 | 91 | 1:00:01 | 91.2 | 0 | 1.1 | 142 | 0 | 89 | 88 | 91 | 91 |
| 09/05/2026 | 3:00:00 | 248 | 75 | 2:31:05 | 74 | 2:40:01 | 74 | 93 | 2:55:01 | 91 | 2:34:03 | 92.2 | 0 | 0.5 | 23 | 0 | 88 | 88 | 90 | 90 |
| 09/05/2026 | 4:00:00 | 248 | 75 | 3:07:04 | 72 | 3:57:01 | 72 | 93 | 4:00:00 | 91 | 3:32:00 | 93.2 | 0 | 0.5 | 203 | 0 | 87 | 87 | 90 | 90 |
| 09/05/2026 | 5:00:00 | 248 | 73 | 4:12:03 | 72 | 4:56:04 | 72 | 95 | 4:45:01 | 93 | 4:00:01 | 94 | 0 | 0.5 | 26 | 0 | 87 | 86 | 89 | 89 |
| 09/05/2026 | 6:00:00 | 248 | 73 | 5:14:05 | 72 | 5:44:05 | 73 | 95 | 6:00:00 | 93 | 5:22:03 | 95.2 | 0 | 0.2 | 202 | 1 | 86 | 86 | 89 | 88 |
| 09/05/2026 | 7:00:00 | 248 | 80 | 7:00:00 | 73 | 6:00:01 | 80 | 95 | 6:00:01 | 86 | 6:58:01 | 86.5 | 0 | 0.9 | 156 | 10 | 86 | 86 | 88 | 88 |
| 09/05/2026 | 8:00:00 | 248 | 85 | 7:53:04 | 79 | 7:00:01 | 85 | 86 | 7:01:05 | 77 | 7:55:03 | 77.69 | 0 | 1.9 | 162 | 27 | 87 | 88 | 88 | 88 |
| 09/05/2026 | 9:00:00 | 248 | 91 | 8:56:05 | 85 | 8:00:02 | 91 | 79 | 8:02:04 | 64 | 9:00:00 | 63.79 | 0 | 1.3 | 113 | 39 | 90 | 91 | 89 | 89 |
| 09/05/2026 | 10:00:00 | 248 | 95 | 10:00:00 | 90 | 9:04:04 | 95 | 65 | 9:05:03 | 53 | 9:58:05 | 54.88 | 0 | 1.5 | 13 | 56 | 93 | 95 | 90 | 91 |
| 09/05/2026 | 11:00:00 | 248 | 98 | 11:00:00 | 95 | 10:02:04 | 98 | 55 | 10:04:00 | 47 | 10:59:05 | 46.85 | 0 | 3.2 | 26 | 64 | 97 | 98 | 92 | 93 |
| 09/05/2026 | 12:00:00 | 248 | 101 | 11:57:01 | 96 | 11:08:03 | 100 | 50 | 11:05:04 | 42 | 11:59:01 | 44.26 | 0 | 3.5 | 25 | 58 | 99 | 100 | 94 | 94 |
| 09/05/2026 | 13:00:00 | 248 | 102 | 12:03:02 | 95 | 12:29:00 | 99 | 56 | 12:28:02 | 42 | 12:04:00 | 44.08 | 0 | 2.7 | 0 | 33 | 100 | 99 | 95 | 95 |
| 09/05/2026 | 14:00:00 | 248 | 101 | 13:13:01 | 96 | 13:41:05 | 99 | 54 | 13:56:04 | 40 | 13:07:00 | 50.34 | 0 | 3.7 | 120 | 34 | 100 | 99 | 96 | 96 |
| 09/05/2026 | 15:00:00 | 248 | 102 | 14:33:00 | 99 | 14:03:05 | 101 | 49 | 14:04:04 | 38 | 14:35:03 | 43.23 | 0 | 3.4 | 105 | 54 | 100 | 101 | 96 | 97 |
| 09/05/2026 | 16:00:00 | 248 | 102 | 15:25:02 | 100 | 15:57:03 | 100 | 44 | 15:51:00 | 38 | 15:48:02 | 41.11 | 0 | 3.6 | 96 | 40 | 102 | 102 | 97 | 97 |
| 09/05/2026 | 17:00:00 | 248 | 103 | 16:38:00 | 99 | 16:18:02 | 100 | 46 | 16:45:02 | 39 | 16:35:04 | 45.23 | 0 | 1.9 | 111 | 21 | 101 | 100 | 98 | 97 |
| 09/05/2026 | 18:00:00 | 248 | 99 | 17:00:01 | 91 | 18:00:00 | 91 | 64 | 17:59:02 | 41 | 17:03:02 | 63.69 | 0 | 2.4 | 41 | 7 | 99 | 98 | 97 | 97 |
| 09/05/2026 | 19:00:00 | 248 | 91 | 18:00:01 | 84 | 18:57:03 | 84 | 75 | 18:59:00 | 63 | 18:01:03 | 74.74 | 0 | 1.3 | 5 | 0 | 97 | 96 | 97 | 96 |
| 09/05/2026 | 20:00:00 | 248 | 84 | 19:27:00 | 83 | 19:38:00 | 84 | 80 | 19:37:03 | 75 | 19:03:03 | 77.86 | 0 | 0.9 | 342 | 0 | 95 | 94 | 95 | 95 |
| 09/05/2026 | 21:00:00 | 248 | 84 | 20:06:02 | 81 | 21:00:00 | 81 | 84 | 21:00:00 | 76 | 20:07:00 | 83.8 | 0 | 1.0 | 12 | 0 | 93 | 93 | 94 | 94 |
| 09/05/2026 | 22:00:00 | 248 | 82 | 21:48:04 | 80 | 21:11:00 | 82 | 87 | 21:14:02 | 78 | 21:47:04 | 78.72 | 0 | 2.3 | 134 | 0 | 92 | 91 | 94 | 93 |
| 09/05/2026 | 23:00:00 | 248 | 82 | 22:05:05 | 79 | 22:59:04 | 79 | 83 | 23:00:00 | 77 | 22:06:01 | 83 | 0 | 1.5 | 127 | 0 | 91 | 90 | 93 | 92 |
| 09/06/2026 | 0:00:00 | 249 | 80 | 23:24:00 | 79 | 23:48:00 | 80 | 84 | 23:48:04 | 81 | 23:24:05 | 82.1 | 0 | 1.4 | 120 | 0 | 90 | 90 | 92 | 92 |
| 09/06/2026 | 1:00:00 | 249 | 80 | 0:03:01 | 77 | 0:59:05 | 77 | 88 | 1:00:00 | 82 | 0:04:04 | 87.8 | 0 | 0.4 | 26 | 0 | 89 | 89 | 91 | 91 |
| 09/06/2026 | 2:00:00 | 249 | 77 | 1:10:00 | 76 | 1:59:03 | 76 | 89 | 1:43:04 | 88 | 1:00:01 | 88.8 | 0 | 0.3 | 2 | 0 | 88 | 88 | 91 | 90 |
| 09/06/2026 | 3:00:00 | 249 | 76 | 2:00:01 | 73 | 2:55:03 | 74 | 93 | 2:58:03 | 89 | 2:00:01 | 93.1 | 0 | 0.7 | 201 | 0 | 88 | 87 | 90 | 90 |
| 09/06/2026 | 4:00:00 | 249 | 75 | 3:59:03 | 73 | 3:01:04 | 75 | 94 | 3:20:00 | 92 | 3:39:00 | 92.7 | 0 | 0.9 | 347 | 0 | 87 | 87 | 89 | 89 |
| 09/06/2026 | 5:00:00 | 249 | 75 | 4:02:00 | 73 | 4:23:05 | 73 | 94 | 4:37:00 | 91 | 4:12:00 | 94 | 0 | 0.7 | 31 | 0 | 86 | 86 | 89 | 89 |
| 09/06/2026 | 6:00:00 | 249 | 74 | 6:00:00 | 73 | 5:00:02 | 74 | 94 | 5:56:00 | 94 | 5:09:01 | 94.3 | 0 | 1.0 | 6 | 0 | 86 | 86 | 88 | 88 |
| Average | 85.96 | 82.65 | 84.33 | 76.3 | 68.65 | 72.38 | 0 | 1.7 | 20.21 | 91.84 | 91.81 | 91.1 | 91.11 | |||||||
| Total | 0 |